createdAt,value
2022-12-24T00:02:04.384Z,60.20
2022-12-24T00:04:44.745Z,60.40
2022-12-24T00:07:31.277Z,60.40
2022-12-24T00:10:12.198Z,60.50
2022-12-24T00:12:59.282Z,60.50
2022-12-24T00:15:39.770Z,60.50
2022-12-24T00:18:26.286Z,60.50
2022-12-24T00:21:07.116Z,60.40
2022-12-24T00:23:54.304Z,60.40
2022-12-24T00:26:35.452Z,60.40
2022-12-24T00:29:22.276Z,60.40
2022-12-24T00:32:02.831Z,60.30
2022-12-24T00:34:53.298Z,60.20
2022-12-24T00:37:40.364Z,60.30
2022-12-24T00:40:20.283Z,60.40
2022-12-24T00:43:07.281Z,60.40
2022-12-24T00:45:47.393Z,60.30
2022-12-24T00:48:34.283Z,60.30
2022-12-24T00:51:14.390Z,60.30
2022-12-24T00:54:01.298Z,60.20
2022-12-24T00:56:41.338Z,61.20
2022-12-24T00:59:28.307Z,60.20
2022-12-24T01:02:15.356Z,60.30
2022-12-24T01:05:10.881Z,60.40
2022-12-24T01:07:58.304Z,60.30
2022-12-24T01:10:52.292Z,60.30
2022-12-24T01:13:40.303Z,60.10
2022-12-24T01:16:23.379Z,60.10
2022-12-24T01:19:10.281Z,60.10
2022-12-24T01:21:57.277Z,60.00
2022-12-24T01:24:38.120Z,60.00
2022-12-24T01:27:24.319Z,60.00
2022-12-24T01:30:15.224Z,60.00
2022-12-24T01:32:55.318Z,60.00
2022-12-24T01:35:39.074Z,60.00
2022-12-24T01:38:26.295Z,60.00
2022-12-24T01:41:25.567Z,60.00
2022-12-24T01:44:12.314Z,59.90
2022-12-24T01:47:13.713Z,60.00
2022-12-24T01:50:12.284Z,60.10
2022-12-24T01:53:00.296Z,60.90
2022-12-24T01:55:47.277Z,59.90
2022-12-24T01:58:34.347Z,59.90
2022-12-24T02:01:14.340Z,60.90
2022-12-24T02:04:01.300Z,59.90
2022-12-24T02:06:41.347Z,59.90
2022-12-24T02:09:28.292Z,60.00
2022-12-24T02:12:16.356Z,60.10
2022-12-24T02:14:56.274Z,60.00
2022-12-24T02:18:03.289Z,60.90
2022-12-24T02:20:57.254Z,59.90
2022-12-24T02:24:22.291Z,59.90
2022-12-24T02:27:22.240Z,59.90
2022-12-24T02:30:26.279Z,59.90
2022-12-24T02:33:27.279Z,59.80
2022-12-24T02:36:17.371Z,59.90
2022-12-24T02:39:15.292Z,59.90
2022-12-24T02:42:08.395Z,60.00
2022-12-24T02:45:02.282Z,59.90
2022-12-24T02:47:50.277Z,59.90
2022-12-24T02:50:37.290Z,60.00
2022-12-24T02:53:24.304Z,59.90
2022-12-24T02:56:30.315Z,60.00
2022-12-24T02:59:38.277Z,60.00
2022-12-24T03:02:40.177Z,60.00
2022-12-24T03:05:38.296Z,59.90
2022-12-24T03:08:52.926Z,59.90
2022-12-24T03:11:39.301Z,59.90
2022-12-24T03:14:28.315Z,59.90
2022-12-24T03:17:10.350Z,59.90
2022-12-24T03:19:58.314Z,59.90
2022-12-24T03:22:41.434Z,60.00
2022-12-24T03:25:32.291Z,60.00
2022-12-24T03:28:14.344Z,60.10
2022-12-24T03:31:02.337Z,60.00
2022-12-24T03:33:49.285Z,60.00
2022-12-24T03:36:37.305Z,60.90
2022-12-24T03:39:17.328Z,60.00
2022-12-24T03:42:04.298Z,60.00
2022-12-24T03:44:44.342Z,60.10
2022-12-24T03:47:31.311Z,60.00
2022-12-24T03:50:19.291Z,60.20
2022-12-24T03:52:59.857Z,60.10
2022-12-24T03:55:46.301Z,60.20
2022-12-24T03:58:33.334Z,60.20
2022-12-24T04:01:13.414Z,60.20
2022-12-24T04:04:00.292Z,60.30
2022-12-24T04:06:40.353Z,60.50
2022-12-24T04:09:27.309Z,60.50
2022-12-24T04:12:15.340Z,60.60
2022-12-24T04:14:55.302Z,60.80
2022-12-24T04:17:35.816Z,60.80
2022-12-24T04:20:23.340Z,60.90
2022-12-24T04:23:03.800Z,61.00
2022-12-24T04:25:51.319Z,61.10
2022-12-24T04:28:33.057Z,61.20
2022-12-24T04:31:20.320Z,61.30
2022-12-24T04:34:00.770Z,61.30
2022-12-24T04:36:47.297Z,62.20
2022-12-24T04:39:27.782Z,61.50
2022-12-24T04:42:14.319Z,61.50
2022-12-24T04:45:01.354Z,61.50
2022-12-24T04:47:41.300Z,61.60
2022-12-24T04:50:28.344Z,61.60
2022-12-24T04:53:08.306Z,61.70
2022-12-24T04:55:48.772Z,61.70
2022-12-24T04:58:35.303Z,61.90
2022-12-24T05:01:25.468Z,61.90
2022-12-24T05:04:06.492Z,61.90
2022-12-24T05:06:46.435Z,61.90
2022-12-24T05:09:33.294Z,62.00
2022-12-24T05:12:20.360Z,61.80
2022-12-24T05:15:00.326Z,61.90
2022-12-24T05:17:47.363Z,62.10
2022-12-24T05:20:27.299Z,62.10
2022-12-24T05:23:33.298Z,62.10
2022-12-24T05:26:29.311Z,62.20
2022-12-24T05:29:17.356Z,62.20
2022-12-24T05:31:57.301Z,62.20
2022-12-24T05:34:44.337Z,62.20
2022-12-24T05:37:24.318Z,62.20
2022-12-24T05:40:12.323Z,62.20
2022-12-24T05:42:52.347Z,62.20
2022-12-24T05:45:39.309Z,62.30
2022-12-24T05:48:19.342Z,62.30
2022-12-24T05:51:07.309Z,62.30
2022-12-24T05:53:48.425Z,62.40
2022-12-24T05:56:35.293Z,62.40
2022-12-24T05:59:15.394Z,62.50
2022-12-24T06:02:02.364Z,62.50
2022-12-24T06:04:49.357Z,62.60
2022-12-24T06:07:36.372Z,62.50
2022-12-24T06:10:17.305Z,62.60
2022-12-24T06:13:04.353Z,62.60
2022-12-24T06:15:44.348Z,62.60
2022-12-24T06:18:31.353Z,62.50
2022-12-24T06:21:12.298Z,62.60
2022-12-24T06:23:52.959Z,62.60
2022-12-24T06:26:39.311Z,62.70
2022-12-24T06:29:19.800Z,62.70
2022-12-24T06:32:06.305Z,62.70
2022-12-24T06:34:53.350Z,62.70
2022-12-24T06:37:33.316Z,62.70
2022-12-24T06:40:20.348Z,62.70
2022-12-24T06:43:00.314Z,62.80
2022-12-24T06:45:59.348Z,62.70
2022-12-24T06:48:46.334Z,62.70
2022-12-24T06:51:26.375Z,62.70
2022-12-24T06:54:13.294Z,62.80
2022-12-24T06:56:53.348Z,62.90
2022-12-24T06:59:40.310Z,62.80
2022-12-24T07:02:20.501Z,62.80
2022-12-24T07:05:07.305Z,62.70
2022-12-24T07:07:50.348Z,62.60
2022-12-24T07:10:37.306Z,62.50
2022-12-24T07:13:25.395Z,62.50
2022-12-24T07:16:07.361Z,62.30
2022-12-24T07:18:54.331Z,62.20
2022-12-24T07:21:34.381Z,62.20
2022-12-24T07:24:21.308Z,62.20
2022-12-24T07:27:08.298Z,62.10
2022-12-24T07:29:55.323Z,62.00
2022-12-24T07:32:35.397Z,61.80
2022-12-24T07:35:22.309Z,61.70
2022-12-24T07:38:09.297Z,61.70
2022-12-24T07:40:49.772Z,61.70
2022-12-24T07:43:36.313Z,61.70
2022-12-24T07:46:16.875Z,61.70
2022-12-24T07:49:03.312Z,61.80
2022-12-24T07:51:50.288Z,61.70
2022-12-24T07:54:37.330Z,61.70
2022-12-24T07:57:24.325Z,61.70
2022-12-24T08:00:11.291Z,61.70
2022-12-24T08:02:58.436Z,61.70
2022-12-24T08:05:43.353Z,61.50
2022-12-24T08:08:30.299Z,61.40
2022-12-24T08:11:21.301Z,61.40
2022-12-24T08:14:08.378Z,61.40
2022-12-24T08:16:48.396Z,61.40
2022-12-24T08:19:36.299Z,61.40
2022-12-24T08:22:16.444Z,61.40
2022-12-24T08:25:03.293Z,61.20
2022-12-24T08:27:43.344Z,61.20
2022-12-24T08:30:30.323Z,61.20
2022-12-24T08:33:17.360Z,61.10
2022-12-24T08:35:58.138Z,61.00
2022-12-24T08:38:44.329Z,60.90
2022-12-24T08:41:24.949Z,60.90
2022-12-24T08:44:11.316Z,60.80
2022-12-24T08:46:58.314Z,60.70
2022-12-24T08:49:46.297Z,60.60
2022-12-24T08:52:33.519Z,60.50
2022-12-24T08:55:13.369Z,60.50
2022-12-24T08:58:00.380Z,60.40
2022-12-24T09:00:40.423Z,60.50
2022-12-24T09:03:28.199Z,60.50
2022-12-24T09:06:10.434Z,60.40
2022-12-24T09:08:57.311Z,60.40
2022-12-24T09:11:51.289Z,60.40
2022-12-24T09:14:38.307Z,60.40
2022-12-24T09:17:18.367Z,60.50
2022-12-24T09:20:05.321Z,60.50
2022-12-24T09:22:46.373Z,60.40
2022-12-24T09:25:33.320Z,60.30
2022-12-24T09:28:20.319Z,60.20
2022-12-24T09:31:09.303Z,59.90
2022-12-24T09:33:51.421Z,59.60
2022-12-24T09:36:38.303Z,59.40
2022-12-24T09:39:25.340Z,59.20
2022-12-24T09:42:31.305Z,59.10
2022-12-24T09:45:42.348Z,58.90
2022-12-24T09:48:36.306Z,58.70
2022-12-24T09:51:19.385Z,58.60
2022-12-24T09:54:16.313Z,58.30
2022-12-24T09:57:03.297Z,58.10
2022-12-24T09:59:46.371Z,58.00
2022-12-24T10:02:33.405Z,57.80
2022-12-24T10:05:22.319Z,57.70
2022-12-24T10:08:18.352Z,57.60
2022-12-24T10:11:23.321Z,57.40
2022-12-24T10:14:18.323Z,57.10
2022-12-24T10:17:26.323Z,57.00
2022-12-24T10:20:21.893Z,56.90
2022-12-24T10:23:17.305Z,57.80
2022-12-24T10:26:19.322Z,56.50
2022-12-24T10:29:12.312Z,56.50
2022-12-24T10:32:26.598Z,56.50
2022-12-24T10:35:21.298Z,56.20
2022-12-24T10:38:04.323Z,56.00
2022-12-24T10:40:56.328Z,55.90
2022-12-24T10:43:40.114Z,56.80
2022-12-24T10:46:41.403Z,55.70
2022-12-24T10:49:52.321Z,55.40
2022-12-24T10:52:46.299Z,55.40
2022-12-24T10:55:28.241Z,55.30
2022-12-24T10:58:21.318Z,55.20
2022-12-24T11:01:08.376Z,55.10
2022-12-24T11:03:48.386Z,55.10
2022-12-24T11:06:35.334Z,55.10
2022-12-24T11:09:32.407Z,54.90
2022-12-24T11:12:28.315Z,55.00
2022-12-24T11:15:31.378Z,54.90
2022-12-24T11:18:22.326Z,54.90
2022-12-24T11:21:09.322Z,54.80
2022-12-24T11:23:51.471Z,54.80
2022-12-24T11:26:41.337Z,54.90
2022-12-24T11:29:26.552Z,54.70
2022-12-24T11:32:32.307Z,54.60
2022-12-24T11:35:25.346Z,54.50
2022-12-24T11:38:12.111Z,54.50
2022-12-24T11:41:24.339Z,54.60
2022-12-24T11:44:08.417Z,54.60
2022-12-24T11:46:58.397Z,54.50
2022-12-24T11:49:38.377Z,54.50
2022-12-24T11:52:30.322Z,54.40
2022-12-24T11:55:26.377Z,54.30
2022-12-24T11:58:29.301Z,54.30
2022-12-24T12:01:36.384Z,54.20
2022-12-24T12:04:34.443Z,54.10
2022-12-24T12:07:29.322Z,54.10
2022-12-24T12:10:30.391Z,54.00
2022-12-24T12:13:30.306Z,53.90
2022-12-24T12:16:57.445Z,53.90
2022-12-24T12:19:53.316Z,53.80
2022-12-24T12:23:02.537Z,53.70
2022-12-24T12:25:58.332Z,53.60
2022-12-24T12:28:50.442Z,53.40
2022-12-24T12:31:43.330Z,53.30
2022-12-24T12:34:42.325Z,53.30
2022-12-24T12:37:40.822Z,53.30
2022-12-24T12:40:31.332Z,53.20
2022-12-24T12:43:25.777Z,53.00
2022-12-24T12:46:28.351Z,53.90
2022-12-24T12:49:24.434Z,52.90
2022-12-24T12:52:26.321Z,52.90
2022-12-24T12:55:45.347Z,52.80
2022-12-24T12:58:40.411Z,52.70
2022-12-24T13:01:52.445Z,52.60
2022-12-24T13:04:35.362Z,52.50
2022-12-24T13:07:37.534Z,52.50
2022-12-24T13:10:29.383Z,52.40
2022-12-24T13:13:35.349Z,52.40
2022-12-24T13:16:54.386Z,52.40
2022-12-24T13:20:02.335Z,52.30
2022-12-24T13:22:42.404Z,52.10
2022-12-24T13:25:54.349Z,52.10
2022-12-24T13:28:41.339Z,52.10
2022-12-24T13:31:31.341Z,52.10
2022-12-24T13:34:31.378Z,52.00
2022-12-24T13:37:30.350Z,52.00
2022-12-24T13:40:17.351Z,51.80
2022-12-24T13:43:05.612Z,51.90
2022-12-24T13:45:45.401Z,51.90
2022-12-24T13:48:31.397Z,51.90
2022-12-24T13:51:38.319Z,51.70
2022-12-24T13:54:25.593Z,51.80
2022-12-24T13:57:13.338Z,51.60
2022-12-24T14:00:09.241Z,51.80
2022-12-24T14:03:21.444Z,51.60
2022-12-24T14:06:07.290Z,51.50
2022-12-24T14:08:58.351Z,51.50
2022-12-24T14:12:07.354Z,51.40
2022-12-24T14:14:54.376Z,51.40
2022-12-24T14:17:42.330Z,51.40
2022-12-24T14:20:23.032Z,51.50
2022-12-24T14:23:11.337Z,51.40
2022-12-24T14:25:52.061Z,51.40
2022-12-24T14:28:46.344Z,51.30
2022-12-24T14:31:27.261Z,51.40
2022-12-24T14:34:23.329Z,51.30
2022-12-24T14:37:04.624Z,51.40
2022-12-24T14:39:55.340Z,51.30
2022-12-24T14:42:53.567Z,51.30
2022-12-24T14:45:58.435Z,51.30
2022-12-24T14:48:56.497Z,51.30
2022-12-24T14:52:46.047Z,51.30
2022-12-24T14:55:48.344Z,51.30
2022-12-24T14:58:34.464Z,51.40
2022-12-24T15:01:35.390Z,51.40
2022-12-24T15:04:18.618Z,51.30
2022-12-24T15:07:06.345Z,51.30
2022-12-24T15:09:48.385Z,51.40
2022-12-24T15:12:35.329Z,51.40
2022-12-24T15:15:21.441Z,51.40
2022-12-24T15:18:10.342Z,51.60
2022-12-24T15:21:04.579Z,51.50
2022-12-24T15:23:57.357Z,51.50
2022-12-24T15:26:47.350Z,51.50
2022-12-24T15:29:39.376Z,51.50
2022-12-24T15:32:29.332Z,51.50
2022-12-24T15:35:51.334Z,51.60
2022-12-24T15:38:43.355Z,51.60
2022-12-24T15:41:31.598Z,51.60
2022-12-24T15:44:18.360Z,51.60
2022-12-24T15:47:06.409Z,52.70
2022-12-24T15:49:46.368Z,51.80
2022-12-24T15:52:27.303Z,51.70
2022-12-24T15:55:14.330Z,51.70
2022-12-24T15:58:01.345Z,51.80
2022-12-24T16:00:42.325Z,51.90
2022-12-24T16:03:29.471Z,51.90
2022-12-24T16:06:16.400Z,51.90
2022-12-24T16:09:03.380Z,52.00
2022-12-24T16:11:50.397Z,52.00
2022-12-24T16:14:40.337Z,52.00
2022-12-24T16:17:34.364Z,52.00
2022-12-24T16:20:28.336Z,52.10
2022-12-24T16:23:08.409Z,52.20
2022-12-24T16:25:56.353Z,52.30
2022-12-24T16:28:37.428Z,52.30
2022-12-24T16:31:26.426Z,52.30
2022-12-24T16:34:08.425Z,52.30
2022-12-24T16:36:55.396Z,52.30
2022-12-24T16:39:46.327Z,53.30
2022-12-24T16:42:52.360Z,52.40
2022-12-24T16:45:39.334Z,52.30
2022-12-24T16:48:28.429Z,52.30
2022-12-24T16:51:08.438Z,52.40
2022-12-24T16:53:55.391Z,52.40
2022-12-24T16:56:42.341Z,52.40
2022-12-24T16:59:31.345Z,52.50
2022-12-24T17:02:19.527Z,52.50
2022-12-24T17:05:06.376Z,51.70
2022-12-24T17:07:46.448Z,52.60
2022-12-24T17:10:33.349Z,52.60
2022-12-24T17:13:27.339Z,53.60
2022-12-24T17:16:14.395Z,52.70
2022-12-24T17:19:02.336Z,52.90
2022-12-24T17:21:42.881Z,53.00
2022-12-24T17:24:29.442Z,53.10
2022-12-24T17:27:16.405Z,53.20
2022-12-24T17:30:03.359Z,53.40
2022-12-24T17:32:44.190Z,53.30
2022-12-24T17:35:30.354Z,53.40
2022-12-24T17:38:10.841Z,53.50
2022-12-24T17:40:57.362Z,53.70
2022-12-24T17:43:45.441Z,54.70
2022-12-24T17:46:29.424Z,53.90
2022-12-24T17:49:16.402Z,53.90
2022-12-24T17:51:56.371Z,54.00
2022-12-24T17:54:43.452Z,54.10
2022-12-24T17:57:23.344Z,54.10
2022-12-24T18:00:10.409Z,54.10
2022-12-24T18:02:50.490Z,54.10
2022-12-24T18:05:39.411Z,54.10
2022-12-24T18:08:19.359Z,54.10
2022-12-24T18:11:06.326Z,54.10
2022-12-24T18:13:53.497Z,54.30
2022-12-24T18:16:37.454Z,54.30
2022-12-24T18:19:24.363Z,54.30
2022-12-24T18:22:04.402Z,54.30
2022-12-24T18:24:51.342Z,54.30
2022-12-24T18:27:38.356Z,55.30
2022-12-24T18:30:22.983Z,54.30
2022-12-24T18:33:15.366Z,54.40
2022-12-24T18:36:02.438Z,54.40
2022-12-24T18:38:43.376Z,54.50
2022-12-24T18:41:24.870Z,54.50
2022-12-24T18:44:12.358Z,54.50
2022-12-24T18:46:52.962Z,54.50
2022-12-24T18:49:39.361Z,54.60
2022-12-24T18:52:22.767Z,54.70
2022-12-24T18:55:09.336Z,54.70
2022-12-24T18:57:49.856Z,54.70
2022-12-24T19:00:36.375Z,54.70
2022-12-24T19:03:16.968Z,54.70
2022-12-24T19:06:08.365Z,54.70
2022-12-24T19:08:58.546Z,54.70
2022-12-24T19:11:47.388Z,54.70
2022-12-24T19:14:34.405Z,54.70
2022-12-24T19:17:14.343Z,54.70
2022-12-24T19:20:01.360Z,54.70
2022-12-24T19:22:41.410Z,54.70
2022-12-24T19:25:28.371Z,54.70
2022-12-24T19:28:10.406Z,54.70
2022-12-24T19:30:57.365Z,54.80
2022-12-24T19:33:42.197Z,54.80
2022-12-24T19:36:35.359Z,54.90
2022-12-24T19:39:15.509Z,54.90
2022-12-24T19:42:02.381Z,54.90
2022-12-24T19:44:42.493Z,55.00
2022-12-24T19:47:29.351Z,55.00
2022-12-24T19:50:10.470Z,55.10
2022-12-24T19:52:57.361Z,55.10
2022-12-24T19:55:44.339Z,56.10
2022-12-24T19:58:25.994Z,55.10
2022-12-24T20:01:22.530Z,55.20
2022-12-24T20:04:03.235Z,55.20
2022-12-24T20:06:53.514Z,55.10
2022-12-24T20:09:45.385Z,55.20
2022-12-24T20:12:25.503Z,55.20
2022-12-24T20:15:13.357Z,55.30
2022-12-24T20:17:54.442Z,55.40
2022-12-24T20:20:41.374Z,55.40
2022-12-24T20:23:21.465Z,55.40
2022-12-24T20:26:10.348Z,55.40
2022-12-24T20:28:50.400Z,55.60
2022-12-24T20:31:37.441Z,55.50
2022-12-24T20:34:18.434Z,55.70
2022-12-24T20:36:59.369Z,55.70
2022-12-24T20:39:46.401Z,55.60
2022-12-24T20:42:26.424Z,55.70
2022-12-24T20:45:14.373Z,55.70
2022-12-24T20:48:01.365Z,55.70
2022-12-24T20:50:48.460Z,55.90
2022-12-24T20:53:29.378Z,55.80
2022-12-24T20:56:09.504Z,55.80
2022-12-24T20:58:57.364Z,55.80
2022-12-24T21:01:38.981Z,55.60
2022-12-24T21:04:25.364Z,55.70
2022-12-24T21:07:14.395Z,55.50
2022-12-24T21:09:54.378Z,55.40
2022-12-24T21:12:58.357Z,55.60
2022-12-24T21:15:46.368Z,55.70
2022-12-24T21:18:33.355Z,55.70
2022-12-24T21:21:13.982Z,55.90
2022-12-24T21:24:00.398Z,56.20
2022-12-24T21:26:41.208Z,56.30
2022-12-24T21:29:28.367Z,57.50
2022-12-24T21:32:15.416Z,56.60
2022-12-24T21:34:55.382Z,56.70
2022-12-24T21:37:36.006Z,56.80
2022-12-24T21:40:24.372Z,56.90
2022-12-24T21:43:11.425Z,56.90
2022-12-24T21:45:56.422Z,57.00
2022-12-24T21:49:02.971Z,57.00
2022-12-24T21:51:43.407Z,57.10
2022-12-24T21:54:23.739Z,57.20
2022-12-24T21:57:34.358Z,57.30
2022-12-24T22:00:26.672Z,57.30
2022-12-24T22:03:13.415Z,57.50
2022-12-24T22:06:00.452Z,57.70
2022-12-24T22:08:59.377Z,57.80
2022-12-24T22:11:54.312Z,57.90
2022-12-24T22:14:41.382Z,58.00
2022-12-24T22:17:25.581Z,59.00
2022-12-24T22:20:12.380Z,58.10
2022-12-24T22:22:52.893Z,58.20
2022-12-24T22:25:39.346Z,58.30
2022-12-24T22:28:20.002Z,58.50
2022-12-24T22:31:06.452Z,58.50
2022-12-24T22:33:47.342Z,58.50
2022-12-24T22:36:34.369Z,58.70
2022-12-24T22:39:22.372Z,58.50
2022-12-24T22:42:09.374Z,58.60
2022-12-24T22:44:56.363Z,58.70
2022-12-24T22:47:36.420Z,58.70
2022-12-24T22:50:23.358Z,58.80
2022-12-24T22:53:10.378Z,58.90
2022-12-24T22:56:04.454Z,58.90
2022-12-24T22:58:44.344Z,59.00
2022-12-24T23:01:55.461Z,59.00
2022-12-24T23:04:47.358Z,59.10
2022-12-24T23:07:27.676Z,59.10
2022-12-24T23:10:15.371Z,59.20
2022-12-24T23:13:20.366Z,59.40
2022-12-24T23:16:06.372Z,59.40
2022-12-24T23:18:53.363Z,59.40
2022-12-24T23:21:48.380Z,59.50
2022-12-24T23:24:37.894Z,59.60
2022-12-24T23:27:17.361Z,59.70
2022-12-24T23:30:04.379Z,59.70
2022-12-24T23:32:44.417Z,59.80
2022-12-24T23:35:31.367Z,59.80
2022-12-24T23:38:11.421Z,60.80
2022-12-24T23:41:09.371Z,60.00
2022-12-24T23:43:49.392Z,60.10
2022-12-24T23:46:36.425Z,60.10
2022-12-24T23:49:20.413Z,60.10
2022-12-24T23:52:07.382Z,60.20
2022-12-24T23:54:47.435Z,60.30
2022-12-24T23:57:34.375Z,60.30
